Time;durP1;ratioP1;P1;durP2;ratioP2;P2;SDS_P1;SDS_P2;PMS_P1;PMS_P2;Temp;Humidity;BMP_temperature;BMP_pressure;BME280_temperature;BME280_humidity;BME280_pressure;Samples;Min_cycle;Max_cycle;Signal;HPM_P1;HPM_P2
2023/09/07 00:00:46;;;;;;;5.10;4.03;;;21.00;99.40;;;;;;5086898;28;20942;-79
2023/09/07 00:03:13;;;;;;;5.50;4.30;;;21.00;99.30;;;;;;5086290;28;20296;-85
2023/09/07 00:05:39;;;;;;;6.20;4.10;;;21.00;99.20;;;;;;5086503;28;20672;-85
2023/09/07 00:08:05;;;;;;;4.53;4.10;;;20.90;99.30;;;;;;5084619;28;20440;-80
2023/09/07 00:10:35;;;;;;;5.00;3.83;;;20.90;99.20;;;;;;5085471;28;20192;-86
2023/09/07 00:13:02;;;;;;;4.77;3.90;;;20.90;99.70;;;;;;5084791;28;20450;-79
2023/09/07 00:15:28;;;;;;;7.87;4.47;;;20.80;99.40;;;;;;5085496;28;20474;-80
2023/09/07 00:17:54;;;;;;;4.47;4.00;;;20.80;99.40;;;;;;5084837;28;20409;-79
2023/09/07 00:20:21;;;;;;;6.70;4.50;;;20.80;99.50;;;;;;5086426;28;20439;-85
2023/09/07 00:22:47;;;;;;;4.57;3.93;;;20.70;99.50;;;;;;5086253;28;20172;-79
2023/09/07 00:25:13;;;;;;;7.10;4.80;;;20.70;99.60;;;;;;5085157;28;20432;-85
2023/09/07 00:27:39;;;;;;;5.23;4.47;;;20.60;99.50;;;;;;5084874;28;21085;-85
2023/09/07 00:30:06;;;;;;;4.23;3.83;;;20.60;99.60;;;;;;5084792;28;20535;-85
2023/09/07 00:32:39;;;;;;;4.77;4.07;;;20.50;99.60;;;;;;5084750;28;20475;-79
2023/09/07 00:35:05;;;;;;;4.40;3.70;;;20.50;99.80;;;;;;5086461;28;20437;-85
2023/09/07 00:37:31;;;;;;;5.17;4.13;;;20.40;99.90;;;;;;5086020;28;20410;-83
2023/09/07 00:39:57;;;;;;;7.27;4.80;;;20.40;99.90;;;;;;5086202;28;20432;-85
2023/09/07 00:42:23;;;;;;;3.93;3.50;;;20.30;99.90;;;;;;5084534;28;20500;-79
2023/09/07 00:44:48;;;;;;;4.97;4.10;;;20.30;99.90;;;;;;5086090;28;20207;-79
2023/09/07 00:47:18;;;;;;;6.23;4.83;;;20.30;99.90;;;;;;5084967;28;20397;-83
2023/09/07 00:49:44;;;;;;;4.87;4.27;;;20.30;99.90;;;;;;5085166;28;20360;-79
2023/09/07 00:52:10;;;;;;;6.90;4.17;;;20.30;99.90;;;;;;5085695;28;20822;-84
2023/09/07 00:54:38;;;;;;;4.63;3.50;;;20.30;99.90;;;;;;5085004;28;20456;-86
2023/09/07 00:57:05;;;;;;;7.80;4.73;;;20.30;99.90;;;;;;5084313;28;20183;-85
2023/09/07 00:59:32;;;;;;;4.93;3.80;;;20.20;99.90;;;;;;5085685;28;20420;-85
2023/09/07 01:01:58;;;;;;;4.50;4.10;;;20.20;99.90;;;;;;5084191;28;20409;-79
2023/09/07 01:04:24;;;;;;;5.60;4.30;;;20.20;99.90;;;;;;5085717;28;20929;-85
2023/09/07 01:07:12;;;;;;;6.03;4.00;;;20.10;99.90;;;;;;5085200;28;20407;-79
2023/09/07 01:09:41;;;;;;;6.13;4.47;;;20.10;99.90;;;;;;5074758;28;20223;-86
2023/09/07 01:12:10;;;;;;;5.33;4.80;;;20.00;99.90;;;;;;5084182;28;20920;-85
2023/09/07 01:14:36;;;;;;;4.47;3.90;;;20.00;99.90;;;;;;5085725;28;20448;-79
2023/09/07 01:17:03;;;;;;;4.73;4.23;;;20.00;99.90;;;;;;5084097;28;20415;-85
2023/09/07 01:19:29;;;;;;;7.43;4.70;;;19.90;99.90;;;;;;5085364;28;20827;-78
2023/09/07 01:21:55;;;;;;;5.70;4.80;;;19.90;99.90;;;;;;5083998;28;20501;-85
2023/09/07 01:24:22;;;;;;;5.10;4.17;;;19.80;99.90;;;;;;5085817;28;20206;-79
2023/09/07 01:26:49;;;;;;;5.40;4.33;;;19.90;99.90;;;;;;5085421;28;20773;-85
2023/09/07 01:29:16;;;;;;;6.80;4.70;;;19.80;99.90;;;;;;5085491;28;20434;-79
2023/09/07 01:31:42;;;;;;;6.53;4.47;;;19.80;99.90;;;;;;5085462;28;20464;-85
2023/09/07 01:34:08;;;;;;;4.97;4.33;;;19.80;99.90;;;;;;5085626;28;20962;-79
2023/09/07 01:36:34;;;;;;;6.00;4.40;;;19.80;99.90;;;;;;5084236;28;20199;-85
2023/09/07 01:39:01;;;;;;;7.23;4.60;;;19.70;99.90;;;;;;5085278;28;20946;-85
2023/09/07 01:41:28;;;;;;;6.73;5.00;;;19.70;99.90;;;;;;5086270;28;20756;-79
2023/09/07 01:43:54;;;;;;;6.20;4.37;;;19.70;99.90;;;;;;5085343;28;20432;-86
2023/09/07 01:46:20;;;;;;;4.40;3.77;;;19.60;99.90;;;;;;5084839;28;20424;-79
2023/09/07 01:48:45;;;;;;;5.90;4.63;;;19.60;99.90;;;;;;5084632;28;20730;-86
2023/09/07 01:51:11;;;;;;;6.90;4.30;;;19.50;99.90;;;;;;5085432;28;20590;-85
2023/09/07 01:53:36;;;;;;;4.67;4.17;;;19.50;99.90;;;;;;5083919;28;20191;-85
2023/09/07 01:56:02;;;;;;;5.97;4.97;;;19.50;99.90;;;;;;5085098;28;20678;-85
2023/09/07 01:58:28;;;;;;;7.03;4.67;;;19.40;99.90;;;;;;5085066;28;20467;-85
2023/09/07 02:00:58;;;;;;;4.67;4.00;;;19.40;99.90;;;;;;5085718;28;20225;-79
2023/09/07 02:03:23;;;;;;;4.97;4.07;;;19.40;99.90;;;;;;5089224;28;20171;-86
2023/09/07 02:05:49;;;;;;;4.87;4.40;;;19.40;99.90;;;;;;5087165;28;20960;-79
2023/09/07 02:08:15;;;;;;;5.30;4.80;;;19.30;99.90;;;;;;5086937;28;20331;-79
2023/09/07 02:10:40;;;;;;;4.40;4.00;;;19.30;99.90;;;;;;5088964;28;20195;-85
2023/09/07 02:13:06;;;;;;;7.90;4.53;;;19.30;99.90;;;;;;5087202;28;20442;-85
2023/09/07 02:15:31;;;;;;;4.53;4.10;;;19.20;99.90;;;;;;5089591;28;20256;-85
2023/09/07 02:17:57;;;;;;;6.50;5.07;;;19.20;99.90;;;;;;5088174;28;20186;-85
2023/09/07 02:20:23;;;;;;;4.43;4.00;;;19.20;99.90;;;;;;5087359;28;20610;-79
2023/09/07 02:22:48;;;;;;;5.57;5.07;;;19.20;99.90;;;;;;5088325;28;20203;-79
2023/09/07 02:25:14;;;;;;;7.27;5.50;;;19.20;99.90;;;;;;5088654;28;20197;-86
2023/09/07 02:27:40;;;;;;;6.77;4.70;;;19.20;99.90;;;;;;5088534;28;20174;-84
2023/09/07 02:30:06;;;;;;;5.67;4.67;;;19.20;99.90;;;;;;5088710;28;20210;-85
2023/09/07 02:32:32;;;;;;;5.63;4.50;;;19.20;99.90;;;;;;5088330;28;20968;-84
2023/09/07 02:34:58;;;;;;;3.87;3.47;;;19.10;99.90;;;;;;5087158;28;20460;-79
2023/09/07 02:37:23;;;;;;;6.17;4.93;;;19.10;99.90;;;;;;5086638;28;20415;-79
2023/09/07 02:39:49;;;;;;;4.83;4.10;;;19.10;99.90;;;;;;5087265;28;20214;-86
2023/09/07 02:42:15;;;;;;;7.20;4.80;;;19.00;99.90;;;;;;5088769;28;20170;-84
2023/09/07 02:44:40;;;;;;;5.50;4.40;;;19.00;99.90;;;;;;5088741;28;20277;-79
2023/09/07 02:47:06;;;;;;;4.97;4.47;;;19.00;99.90;;;;;;5086665;28;20183;-85
2023/09/07 02:49:32;;;;;;;5.67;4.57;;;18.90;99.90;;;;;;5087314;28;20759;-79
2023/09/07 02:51:57;;;;;;;6.17;4.87;;;18.90;99.90;;;;;;5086212;28;20242;-84
2023/09/07 02:54:23;;;;;;;5.30;4.30;;;18.90;99.90;;;;;;5087127;28;20202;-79
2023/09/07 02:56:49;;;;;;;4.37;3.83;;;18.90;99.90;;;;;;5088335;28;20232;-79
2023/09/07 02:59:15;;;;;;;5.23;4.73;;;18.80;99.90;;;;;;5088204;28;20418;-85
2023/09/07 03:01:40;;;;;;;5.07;4.37;;;18.80;99.90;;;;;;5086940;28;20182;-79
2023/09/07 03:04:07;;;;;;;6.37;4.53;;;18.60;99.90;;;;;;5087593;28;20176;-84
2023/09/07 03:06:33;;;;;;;5.03;4.33;;;18.60;99.90;;;;;;5087809;28;20202;-85
2023/09/07 03:08:58;;;;;;;5.70;4.63;;;18.60;99.90;;;;;;5085866;28;20430;-85
2023/09/07 03:11:25;;;;;;;5.30;4.07;;;18.70;99.90;;;;;;5086235;28;20241;-85
2023/09/07 03:13:50;;;;;;;7.50;5.20;;;18.80;99.90;;;;;;5087479;28;20191;-85
2023/09/07 03:16:16;;;;;;;5.30;4.40;;;18.80;99.90;;;;;;5087597;28;20978;-79
2023/09/07 03:18:42;;;;;;;6.23;4.90;;;19.00;99.90;;;;;;5086456;28;20221;-85
2023/09/07 03:21:07;;;;;;;5.67;5.00;;;19.00;99.90;;;;;;5087412;28;20198;-85
2023/09/07 03:23:33;;;;;;;4.50;4.10;;;19.00;99.90;;;;;;5086108;28;20194;-86
2023/09/07 03:26:00;;;;;;;5.47;4.43;;;19.00;99.90;;;;;;5085901;28;20551;-86
2023/09/07 03:28:25;;;;;;;5.97;4.67;;;18.90;99.90;;;;;;5087318;28;20486;-79
2023/09/07 03:30:53;;;;;;;5.90;5.03;;;19.00;99.90;;;;;;5087620;28;20421;-84
2023/09/07 03:33:19;;;;;;;6.20;4.67;;;19.00;99.90;;;;;;5087328;28;20526;-79
2023/09/07 03:35:45;;;;;;;5.73;4.40;;;19.00;99.90;;;;;;5086021;28;20438;-79
2023/09/07 03:38:11;;;;;;;6.40;4.50;;;19.00;99.90;;;;;;5085415;28;20935;-79
2023/09/07 03:40:36;;;;;;;5.20;4.50;;;19.00;99.90;;;;;;5086153;28;20717;-84
2023/09/07 03:43:02;;;;;;;6.47;4.50;;;19.10;99.90;;;;;;5087049;28;20206;-79
2023/09/07 03:45:28;;;;;;;5.70;4.40;;;19.10;99.90;;;;;;5087113;28;20191;-85
2023/09/07 03:47:53;;;;;;;8.10;5.00;;;19.10;99.90;;;;;;5085361;28;20175;-79
2023/09/07 03:50:19;;;;;;;5.23;4.73;;;19.10;99.90;;;;;;5086177;28;20690;-85
2023/09/07 03:52:45;;;;;;;6.03;5.30;;;19.00;99.90;;;;;;5085069;28;20330;-79
2023/09/07 03:55:10;;;;;;;6.03;4.30;;;19.00;99.90;;;;;;5085176;28;20815;-86
2023/09/07 03:57:36;;;;;;;5.80;4.90;;;19.00;99.90;;;;;;5085497;28;20650;-79
2023/09/07 04:00:07;;;;;;;7.87;4.90;;;19.10;99.90;;;;;;5085029;28;20573;-79
2023/09/07 04:02:33;;;;;;;6.40;4.70;;;19.10;99.90;;;;;;5084158;28;20414;-78
2023/09/07 04:05:01;;;;;;;5.80;4.57;;;19.10;99.90;;;;;;5085263;28;20446;-88
2023/09/07 04:07:27;;;;;;;4.70;4.13;;;19.10;99.90;;;;;;5085140;28;20932;-89
2023/09/07 04:09:53;;;;;;;6.43;4.90;;;19.10;99.90;;;;;;5085010;28;20456;-80
2023/09/07 04:12:18;;;;;;;4.33;3.93;;;19.10;99.90;;;;;;5086301;28;20207;-84
2023/09/07 04:14:44;;;;;;;7.27;4.17;;;19.10;99.90;;;;;;5086534;28;20218;-80
2023/09/07 04:17:10;;;;;;;5.30;4.80;;;19.00;99.90;;;;;;5086356;28;20547;-79
2023/09/07 04:19:36;;;;;;;5.17;4.53;;;18.80;99.90;;;;;;5086455;28;20952;-79
2023/09/07 04:22:02;;;;;;;4.53;4.10;;;18.80;99.90;;;;;;5083424;28;20512;-79
2023/09/07 04:24:27;;;;;;;7.00;5.60;;;18.70;99.90;;;;;;5085111;28;20551;-79
2023/09/07 04:26:57;;;;;;;6.80;5.10;;;18.70;99.90;;;;;;5082409;28;20223;-84
2023/09/07 04:29:23;;;;;;;5.00;4.50;;;18.70;99.90;;;;;;5085611;28;20845;-79
2023/09/07 04:31:49;;;;;;;5.60;4.37;;;18.60;99.90;;;;;;5083337;28;20590;-86
2023/09/07 04:34:14;;;;;;;4.83;4.23;;;18.50;99.90;;;;;;5085748;28;20264;-80
2023/09/07 04:36:40;;;;;;;7.30;5.50;;;18.50;99.90;;;;;;5084287;28;20178;-81
2023/09/07 04:39:05;;;;;;;6.70;5.13;;;18.50;99.90;;;;;;5086816;28;20311;-86
2023/09/07 04:41:31;;;;;;;5.77;5.17;;;18.50;99.90;;;;;;5097527;27;20253;-85
2023/09/07 04:43:57;;;;;;;6.03;4.50;;;18.50;99.90;;;;;;5081850;28;20200;-80
2023/09/07 04:46:23;;;;;;;5.83;4.60;;;18.50;99.90;;;;;;5075032;28;20654;-87
2023/09/07 04:48:49;;;;;;;5.30;4.57;;;18.50;99.90;;;;;;5082603;28;20986;-86
2023/09/07 04:51:14;;;;;;;5.90;5.30;;;18.50;99.90;;;;;;5084750;28;20473;-79
2023/09/07 04:53:41;;;;;;;9.23;6.10;;;18.50;99.90;;;;;;5084550;28;20205;-80
2023/09/07 04:56:08;;;;;;;7.20;5.47;;;18.50;99.90;;;;;;5082494;28;20439;-79
2023/09/07 04:58:34;;;;;;;6.63;5.13;;;18.50;99.90;;;;;;5082723;28;20320;-86
2023/09/07 05:01:04;;;;;;;5.90;5.30;;;18.50;99.90;;;;;;5082793;28;20430;-79
2023/09/07 05:03:30;;;;;;;6.87;5.47;;;18.60;99.90;;;;;;5085289;28;20424;-79
2023/09/07 05:05:56;;;;;;;6.57;5.10;;;18.60;99.90;;;;;;5085721;28;20499;-79
2023/09/07 05:08:24;;;;;;;7.57;5.37;;;18.70;99.90;;;;;;5084243;28;20430;-86
2023/09/07 05:11:00;;;;;;;298.37;130.07;;;18.60;99.90;;;;;;5082079;28;20439;-79
2023/09/07 05:13:26;;;;;;;10.57;8.17;;;18.70;99.90;;;;;;5079631;28;20471;-85
2023/09/07 05:15:54;;;;;;;7.20;5.23;;;18.80;99.90;;;;;;5079623;28;21028;-79
2023/09/07 05:18:20;;;;;;;7.40;6.07;;;18.90;99.90;;;;;;5082983;28;20442;-85
2023/09/07 05:20:51;;;;;;;5.97;5.23;;;19.00;99.90;;;;;;5082828;28;20496;-84
2023/09/07 05:23:19;;;;;;;5.47;4.97;;;19.00;99.90;;;;;;5081342;28;20449;-84
2023/09/07 05:25:52;;;;;;;6.60;4.80;;;19.10;99.90;;;;;;5084799;28;20948;-85
2023/09/07 05:28:18;;;;;;;9.67;6.03;;;19.20;99.90;;;;;;5081081;28;20514;-78
2023/09/07 05:30:44;;;;;;;5.63;4.87;;;19.20;99.90;;;;;;5081007;28;20474;-79
2023/09/07 05:33:11;;;;;;;7.27;5.13;;;19.30;99.90;;;;;;5081060;28;20447;-78
2023/09/07 05:35:37;;;;;;;6.03;5.43;;;19.40;99.90;;;;;;5080956;28;20237;-80
2023/09/07 05:38:04;;;;;;;6.23;5.60;;;19.40;99.90;;;;;;5080423;28;20420;-85
2023/09/07 05:40:29;;;;;;;6.40;5.47;;;19.50;99.90;;;;;;5082963;28;20996;-85
2023/09/07 05:42:55;;;;;;;7.63;5.10;;;19.50;99.90;;;;;;5084743;28;20700;-79
2023/09/07 05:45:21;;;;;;;8.10;6.20;;;19.60;99.90;;;;;;5083075;28;20238;-85
2023/09/07 05:47:47;;;;;;;6.30;5.10;;;19.70;99.90;;;;;;5084449;28;21012;-79
2023/09/07 05:50:12;;;;;;;6.50;5.23;;;19.70;99.90;;;;;;5082540;28;20240;-84
2023/09/07 05:52:38;;;;;;;7.00;5.50;;;19.80;99.90;;;;;;5082102;28;20459;-79
2023/09/07 05:55:04;;;;;;;540.47;265.20;;;19.80;99.90;;;;;;5075357;28;20204;-85
2023/09/07 05:57:30;;;;;;;90.07;47.63;;;19.90;99.90;;;;;;5071444;28;20173;-84
2023/09/07 05:59:55;;;;;;;8.90;5.63;;;20.00;99.90;;;;;;5063985;28;20609;-79
2023/09/07 06:02:21;;;;;;;6.57;5.97;;;20.10;99.90;;;;;;5079419;28;20190;-79
2023/09/07 06:04:46;;;;;;;9.90;5.97;;;20.10;99.90;;;;;;5077914;28;20247;-79
2023/09/07 06:07:12;;;;;;;6.23;4.67;;;20.20;99.90;;;;;;5083429;28;20188;-83
2023/09/07 06:09:37;;;;;;;7.07;5.60;;;20.30;99.90;;;;;;5084226;28;20246;-85
2023/09/07 06:12:03;;;;;;;9.07;6.00;;;20.30;99.90;;;;;;5070499;28;20242;-83
2023/09/07 06:14:29;;;;;;;6.80;5.17;;;20.30;99.90;;;;;;5084336;28;20188;-79
2023/09/07 06:16:55;;;;;;;6.67;5.07;;;20.30;99.90;;;;;;5082724;28;20524;-84
2023/09/07 06:19:20;;;;;;;5.90;5.30;;;20.30;99.90;;;;;;5082603;28;20173;-79
2023/09/07 06:21:46;;;;;;;6.77;5.30;;;20.30;99.90;;;;;;5085027;28;20657;-79
2023/09/07 06:24:11;;;;;;;8.10;6.00;;;20.40;99.90;;;;;;5082216;28;20643;-84
2023/09/07 06:26:37;;;;;;;5.83;5.13;;;20.40;99.90;;;;;;5080440;28;20321;-84
2023/09/07 06:29:03;;;;;;;6.20;5.43;;;20.50;99.90;;;;;;5082272;28;20622;-84
2023/09/07 06:31:29;;;;;;;8.37;5.37;;;20.60;99.90;;;;;;5077113;28;20311;-85
2023/09/07 06:33:54;;;;;;;5.97;4.93;;;20.70;99.90;;;;;;5080157;28;20696;-85
2023/09/07 06:36:20;;;;;;;6.97;4.90;;;20.80;99.90;;;;;;5083682;28;20197;-79
2023/09/07 06:38:45;;;;;;;5.90;5.20;;;20.90;99.90;;;;;;5082473;28;20184;-83
2023/09/07 06:41:14;;;;;;;6.17;4.93;;;20.90;99.90;;;;;;5083287;28;20388;-84
2023/09/07 06:43:40;;;;;;;6.00;5.20;;;21.10;99.90;;;;;;5083945;28;20263;-79
2023/09/07 06:46:08;;;;;;;5.97;4.30;;;21.10;99.90;;;;;;5080841;28;20459;-79
2023/09/07 06:48:34;;;;;;;6.50;5.07;;;21.30;99.90;;;;;;5077319;28;20485;-85
2023/09/07 06:51:03;;;;;;;7.43;4.87;;;21.30;99.90;;;;;;5079137;28;20441;-85
2023/09/07 06:53:29;;;;;;;6.60;5.20;;;21.40;99.90;;;;;;5079751;28;20942;-85
2023/09/07 06:56:03;;;;;;;6.67;5.63;;;21.50;99.90;;;;;;5081192;28;20452;-79
2023/09/07 06:58:29;;;;;;;6.60;5.03;;;21.60;99.90;;;;;;5083556;28;20192;-85
2023/09/07 07:00:58;;;;;;;6.47;5.23;;;21.70;99.90;;;;;;5082745;28;20877;-85
2023/09/07 07:03:28;;;;;;;8.00;4.97;;;21.80;99.90;;;;;;5078336;28;20184;-79
2023/09/07 07:05:54;;;;;;;5.83;4.80;;;21.90;99.90;;;;;;5074983;28;20613;-79
2023/09/07 07:08:20;;;;;;;6.50;5.80;;;22.00;99.90;;;;;;5077174;28;20532;-85
2023/09/07 07:10:46;;;;;;;6.47;5.83;;;22.00;99.90;;;;;;5077934;28;20566;-79
2023/09/07 07:13:11;;;;;;;8.63;5.13;;;22.10;99.90;;;;;;5078876;28;20542;-79
2023/09/07 07:15:37;;;;;;;5.70;5.10;;;22.20;99.90;;;;;;5080375;28;20506;-85
2023/09/07 07:18:08;;;;;;;5.30;4.80;;;22.30;99.90;;;;;;5082073;28;20200;-85
2023/09/07 07:20:41;;;;;;;6.03;5.13;;;22.40;99.90;;;;;;5081300;28;20733;-84
2023/09/07 07:23:07;;;;;;;4.87;4.30;;;22.50;99.90;;;;;;5081791;28;20429;-84
2023/09/07 07:25:34;;;;;;;4.97;4.47;;;22.60;99.90;;;;;;5079349;28;20471;-84
2023/09/07 07:28:06;;;;;;;7.17;5.30;;;22.70;99.90;;;;;;5072942;28;20180;-79
2023/09/07 07:30:37;;;;;;;4.30;3.90;;;22.80;99.90;;;;;;5075326;28;20595;-79
2023/09/07 07:33:06;;;;;;;4.83;4.33;;;22.90;99.90;;;;;;5080529;28;21092;-85
2023/09/07 07:35:35;;;;;;;6.50;4.80;;;23.00;99.90;;;;;;5079465;28;20450;-79
2023/09/07 07:38:01;;;;;;;6.10;4.60;;;23.20;99.90;;;;;;5082113;28;20414;-79
2023/09/07 07:40:26;;;;;;;5.20;4.63;;;23.30;99.90;;;;;;5080832;28;20437;-80
2023/09/07 07:42:53;;;;;;;5.43;4.63;;;23.40;99.90;;;;;;5090444;28;20484;-85
2023/09/07 07:45:22;;;;;;;5.63;4.90;;;23.40;99.90;;;;;;5083613;28;20496;-84
2023/09/07 07:47:54;;;;;;;4.57;4.13;;;23.50;99.90;;;;;;5082327;28;20439;-85
2023/09/07 07:50:19;;;;;;;4.60;4.20;;;23.60;99.90;;;;;;5070121;28;20471;-79
2023/09/07 07:52:48;;;;;;;4.93;4.50;;;23.70;99.90;;;;;;5071100;28;21032;-79
2023/09/07 07:55:13;;;;;;;7.90;4.80;;;23.80;99.90;;;;;;5083325;28;20468;-84
2023/09/07 07:57:39;;;;;;;6.00;5.40;;;23.90;99.90;;;;;;5069967;28;20437;-83
2023/09/07 08:00:06;;;;;;;5.90;4.27;;;24.10;99.90;;;;;;5073538;28;20222;-84
2023/09/07 08:02:32;;;;;;;5.87;4.90;;;24.10;99.90;;;;;;5082024;28;20200;-79
2023/09/07 08:04:58;;;;;;;4.53;3.80;;;24.20;99.90;;;;;;5081651;28;20502;-85
2023/09/07 08:07:25;;;;;;;6.43;4.67;;;24.40;99.90;;;;;;5081683;28;20263;-79
2023/09/07 08:09:51;;;;;;;5.30;4.57;;;24.50;99.90;;;;;;5079256;28;21140;-79
2023/09/07 08:12:17;;;;;;;4.77;4.30;;;24.60;99.90;;;;;;5069923;28;20709;-79
2023/09/07 08:14:42;;;;;;;5.50;4.07;;;24.80;99.90;;;;;;5076386;28;20529;-80
2023/09/07 08:17:08;;;;;;;5.50;4.30;;;24.90;99.90;;;;;;5067162;28;20420;-80
2023/09/07 08:19:34;;;;;;;6.50;4.50;;;25.00;99.90;;;;;;5077094;28;20232;-84
2023/09/07 08:22:03;;;;;;;7.20;4.60;;;25.20;99.90;;;;;;5077727;28;20463;-80
2023/09/07 08:24:29;;;;;;;4.67;4.23;;;25.30;99.90;;;;;;5076611;28;20516;-79
2023/09/07 08:26:57;;;;;;;4.80;4.30;;;25.40;99.90;;;;;;5075881;28;20700;-80
2023/09/07 08:29:26;;;;;;;5.40;4.03;;;25.60;99.90;;;;;;5079651;28;20463;-85
2023/09/07 08:31:52;;;;;;;6.00;3.93;;;25.60;99.90;;;;;;5077317;28;20836;-84
2023/09/07 08:34:20;;;;;;;5.23;4.10;;;25.70;99.90;;;;;;5078975;28;20710;-79
2023/09/07 08:36:46;;;;;;;4.33;3.93;;;26.10;99.90;;;;;;5078187;28;20425;-85
2023/09/07 08:39:12;;;;;;;4.80;4.00;;;26.90;99.30;;;;;;5077365;28;20865;-85
2023/09/07 08:41:45;;;;;;;4.47;3.90;;;27.80;98.70;;;;;;5075264;28;20180;-80
2023/09/07 08:44:11;;;;;;;3.90;3.60;;;28.90;97.10;;;;;;5081043;28;20711;-85
2023/09/07 08:46:38;;;;;;;4.30;3.90;;;29.90;95.90;;;;;;5076712;28;20513;-84
2023/09/07 08:49:04;;;;;;;4.27;3.80;;;30.60;95.10;;;;;;5075739;28;20515;-85
2023/09/07 08:51:31;;;;;;;4.63;3.97;;;30.90;94.60;;;;;;5078360;28;20871;-85
2023/09/07 08:53:57;;;;;;;4.37;3.50;;;31.20;94.10;;;;;;5076875;28;21038;-85
2023/09/07 08:56:24;;;;;;;4.10;3.63;;;31.10;94.10;;;;;;5074129;28;20874;-85
2023/09/07 08:58:50;;;;;;;4.07;3.77;;;30.80;94.10;;;;;;5074949;28;20431;-81
2023/09/07 09:01:16;;;;;;;4.43;3.70;;;30.60;93.80;;;;;;5075238;28;20453;-80
2023/09/07 09:03:43;;;;;;;4.03;3.63;;;30.30;93.50;;;;;;5073060;28;20436;-80
2023/09/07 09:06:09;;;;;;;4.20;3.80;;;30.10;93.50;;;;;;5075311;28;21058;-85
2023/09/07 09:08:45;;;;;;;5.23;4.30;;;29.90;93.20;;;;;;5077795;28;20442;-81
2023/09/07 09:11:11;;;;;;;4.53;3.97;;;29.70;93.60;;;;;;5067728;28;20458;-85
2023/09/07 09:13:37;;;;;;;4.57;3.63;;;29.50;93.00;;;;;;5074495;28;20420;-85
2023/09/07 09:16:03;;;;;;;4.30;3.97;;;29.40;93.40;;;;;;5076603;28;20501;-80
2023/09/07 09:18:29;;;;;;;4.50;4.07;;;29.30;93.40;;;;;;5074151;28;20177;-84
2023/09/07 09:20:55;;;;;;;5.60;3.73;;;29.20;93.50;;;;;;5075179;28;20290;-85
2023/09/07 09:23:21;;;;;;;3.87;3.57;;;29.10;93.40;;;;;;5074018;28;20725;-83
2023/09/07 09:25:51;;;;;;;4.50;4.10;;;29.10;92.70;;;;;;5072106;28;20705;-80
2023/09/07 09:28:17;;;;;;;4.03;3.63;;;28.90;93.00;;;;;;5073048;28;20184;-80
2023/09/07 09:30:45;;;;;;;4.60;4.20;;;28.90;92.70;;;;;;5075671;28;20521;-85
2023/09/07 09:33:11;;;;;;;4.50;4.10;;;28.80;92.80;;;;;;5095377;28;20478;-81
2023/09/07 09:35:40;;;;;;;5.13;4.20;;;28.80;92.60;;;;;;5077827;28;21030;-80
2023/09/07 09:38:06;;;;;;;3.97;3.63;;;28.70;92.90;;;;;;5078818;28;20194;-84
2023/09/07 09:40:34;;;;;;;4.23;3.20;;;28.70;92.70;;;;;;5081038;28;20432;-84
2023/09/07 09:43:02;;;;;;;3.73;3.43;;;28.60;93.30;;;;;;5079073;28;20644;-80
2023/09/07 09:45:28;;;;;;;4.23;3.80;;;28.60;93.00;;;;;;5079543;28;20448;-85
2023/09/07 09:47:59;;;;;;;5.33;3.70;;;28.60;93.20;;;;;;5077124;28;20430;-85
2023/09/07 09:50:25;;;;;;;6.03;3.97;;;28.70;93.30;;;;;;5078122;28;20500;-80
2023/09/07 09:52:53;;;;;;;4.37;3.97;;;28.70;93.30;;;;;;5077486;28;20446;-80
2023/09/07 09:55:19;;;;;;;5.07;4.03;;;28.70;92.80;;;;;;5077895;28;20453;-80
2023/09/07 09:57:45;;;;;;;4.43;4.00;;;28.70;92.60;;;;;;5072281;28;20614;-85
2023/09/07 10:00:29;;;;;;;4.23;3.83;;;28.70;92.50;;;;;;5074297;28;20719;-85
2023/09/07 10:03:07;;;;;;;4.50;4.10;;;28.70;92.40;;;;;;5075630;28;20533;-80
2023/09/07 10:05:34;;;;;;;3.73;3.43;;;28.60;92.40;;;;;;5076528;28;20475;-85
2023/09/07 10:08:08;;;;;;;3.97;3.57;;;28.50;92.90;;;;;;5078520;28;20416;-80
2023/09/07 10:10:38;;;;;;;5.00;3.70;;;28.50;92.90;;;;;;5077850;28;20707;-80
2023/09/07 10:13:05;;;;;;;5.23;4.17;;;28.50;91.20;;;;;;5080521;28;20831;-84
2023/09/07 10:15:32;;;;;;;3.97;3.57;;;28.60;91.60;;;;;;5076985;28;20444;-85
2023/09/07 10:18:16;;;;;;;4.37;3.87;;;28.60;91.70;;;;;;5077664;28;20545;-85
2023/09/07 10:20:59;;;;;;;3.63;3.33;;;28.70;91.20;;;;;;5077079;28;20549;-80
2023/09/07 10:23:39;;;;;;;3.90;3.53;;;28.70;91.30;;;;;;5079707;28;20436;-85
2023/09/07 10:26:10;;;;;;;4.07;3.73;;;28.70;91.90;;;;;;5079265;28;20443;-80
2023/09/07 10:28:36;;;;;;;3.67;3.37;;;28.70;92.50;;;;;;5079294;28;20439;-85
2023/09/07 10:31:07;;;;;;;3.83;3.53;;;28.70;92.20;;;;;;5076224;28;20464;-84
2023/09/07 10:33:34;;;;;;;4.20;3.80;;;28.70;91.10;;;;;;5087285;28;20674;-85
2023/09/07 10:36:01;;;;;;;3.87;3.47;;;28.70;90.70;;;;;;5080095;28;20450;-80
2023/09/07 10:38:27;;;;;;;3.80;3.50;;;28.80;90.30;;;;;;5075186;28;20516;-85
2023/09/07 10:40:57;;;;;;;4.37;4.00;;;28.80;90.40;;;;;;5081046;28;21009;-85
2023/09/07 10:43:28;;;;;;;4.63;3.13;;;28.70;90.30;;;;;;5070892;28;20667;-85
2023/09/07 10:45:58;;;;;;;3.40;3.10;;;28.70;90.80;;;;;;5074195;28;20445;-80
2023/09/07 10:48:25;;;;;;;3.80;3.20;;;28.80;91.30;;;;;;5076474;28;20608;-86
2023/09/07 10:50:54;;;;;;;3.53;3.20;;;28.80;91.40;;;;;;5074972;28;20758;-85
2023/09/07 10:53:28;;;;;;;3.50;3.00;;;28.90;91.00;;;;;;5076028;28;20483;-79
2023/09/07 10:55:55;;;;;;;3.87;3.57;;;28.90;91.20;;;;;;5072229;28;20865;-80
2023/09/07 10:58:30;;;;;;;4.00;3.60;;;28.90;91.70;;;;;;5073394;28;20438;-85
2023/09/07 11:00:56;;;;;;;4.10;3.70;;;29.00;91.30;;;;;;5067446;28;20469;-85
2023/09/07 11:03:23;;;;;;;3.43;3.13;;;29.00;90.90;;;;;;5067907;28;20496;-80
2023/09/07 11:05:52;;;;;;;3.93;3.43;;;29.00;91.40;;;;;;5075751;28;20531;-86
2023/09/07 11:08:18;;;;;;;4.50;3.70;;;29.00;91.80;;;;;;5074423;28;20987;-80
2023/09/07 11:10:44;;;;;;;3.63;3.33;;;29.00;91.60;;;;;;5075190;28;20434;-80
2023/09/07 11:13:09;;;;;;;3.00;2.80;;;29.00;91.30;;;;;;5074424;28;20584;-86
2023/09/07 11:15:35;;;;;;;3.63;3.17;;;29.00;92.10;;;;;;5069836;28;20215;-80
2023/09/07 11:18:06;;;;;;;4.97;4.30;;;29.00;91.80;;;;;;5069945;28;20188;-83
2023/09/07 11:20:33;;;;;;;3.57;3.17;;;29.00;91.90;;;;;;5079024;28;20426;-80
2023/09/07 11:23:00;;;;;;;3.50;3.20;;;29.10;92.00;;;;;;5083154;28;21043;-85
2023/09/07 11:25:25;;;;;;;3.70;3.20;;;29.00;92.20;;;;;;5078791;28;20456;-86
2023/09/07 11:27:57;;;;;;;3.13;2.83;;;29.10;90.80;;;;;;5078405;28;20682;-81
2023/09/07 11:30:24;;;;;;;3.47;3.17;;;29.10;91.90;;;;;;5082138;28;20323;-85
2023/09/07 11:32:50;;;;;;;3.53;3.23;;;28.90;92.20;;;;;;5080366;28;20516;-86
2023/09/07 11:35:16;;;;;;;4.53;4.13;;;29.00;92.40;;;;;;5072038;28;20462;-80
2023/09/07 11:37:42;;;;;;;3.97;3.30;;;29.00;92.30;;;;;;5077761;28;20846;-80
2023/09/07 11:40:12;;;;;;;4.50;3.40;;;29.00;91.50;;;;;;5082141;28;20454;-80
2023/09/07 11:42:38;;;;;;;4.23;3.13;;;29.10;91.20;;;;;;5080851;28;20551;-86
2023/09/07 11:45:06;;;;;;;3.60;3.30;;;29.10;90.00;;;;;;5080575;28;20862;-85
2023/09/07 11:47:34;;;;;;;3.80;3.43;;;29.10;91.50;;;;;;5080048;28;20410;-85
2023/09/07 11:50:00;;;;;;;4.47;3.80;;;29.10;91.50;;;;;;5071209;28;21257;-85
2023/09/07 11:52:25;;;;;;;3.40;3.10;;;29.00;92.00;;;;;;5077291;28;20457;-83
2023/09/07 11:54:51;;;;;;;4.10;3.70;;;29.00;91.80;;;;;;5077751;28;20466;-84
2023/09/07 11:57:17;;;;;;;4.57;4.10;;;29.00;91.80;;;;;;5075626;28;20805;-83
2023/09/07 11:59:42;;;;;;;3.73;3.00;;;29.00;91.90;;;;;;5067657;28;20418;-85
2023/09/07 12:02:11;;;;;;;4.47;3.27;;;29.10;91.10;;;;;;5071201;28;20605;-79
2023/09/07 12:04:37;;;;;;;4.13;3.63;;;29.10;91.80;;;;;;5072597;28;20516;-85
2023/09/07 12:07:03;;;;;;;4.00;3.63;;;29.10;90.10;;;;;;5074744;28;20472;-85
2023/09/07 12:09:29;;;;;;;3.63;3.33;;;29.20;89.30;;;;;;5078223;28;20771;-80
2023/09/07 12:11:55;;;;;;;3.70;3.10;;;29.20;90.30;;;;;;5078311;28;20650;-80
2023/09/07 12:14:21;;;;;;;3.50;3.20;;;29.20;90.70;;;;;;5077830;28;20456;-80
2023/09/07 12:16:46;;;;;;;4.20;3.80;;;29.20;91.30;;;;;;5077820;28;20545;-80
2023/09/07 12:19:12;;;;;;;3.70;3.40;;;29.20;91.30;;;;;;5079501;28;20434;-85
2023/09/07 12:21:38;;;;;;;3.67;3.33;;;29.20;89.40;;;;;;5078692;28;20816;-84
2023/09/07 12:24:04;;;;;;;8.70;3.20;;;29.20;90.70;;;;;;5073975;28;20438;-80
2023/09/07 12:26:29;;;;;;;3.67;3.30;;;29.30;91.00;;;;;;5077955;28;20362;-85
2023/09/07 12:28:55;;;;;;;4.50;3.60;;;29.30;91.20;;;;;;5077977;28;20655;-84
2023/09/07 12:31:21;;;;;;;3.87;3.53;;;29.30;91.00;;;;;;5072799;28;20455;-85
2023/09/07 12:33:46;;;;;;;3.20;3.00;;;29.40;90.00;;;;;;5074275;28;20596;-84
2023/09/07 12:36:12;;;;;;;4.03;3.63;;;29.40;90.50;;;;;;5075897;28;20295;-80
2023/09/07 12:38:38;;;;;;;3.90;3.50;;;29.40;87.80;;;;;;5072203;28;20660;-84
2023/09/07 12:41:03;;;;;;;3.77;3.47;;;29.50;89.30;;;;;;5073971;28;20199;-85
2023/09/07 12:43:29;;;;;;;3.50;3.20;;;29.50;89.10;;;;;;5072189;28;20238;-80